createdAt,value
2019-02-22T00:15:06.432Z,5.90
2019-02-22T00:21:07.342Z,5.90
2019-02-22T00:23:37.058Z,6.23
2019-02-22T00:26:06.593Z,6.80
2019-02-22T00:28:36.333Z,6.23
2019-02-22T00:31:06.195Z,6.00
2019-02-22T00:33:35.969Z,6.10
2019-02-22T00:36:05.836Z,6.40
2019-02-22T00:38:35.436Z,5.80
2019-02-22T00:41:05.140Z,7.30
2019-02-22T00:43:34.754Z,5.87
2019-02-22T00:46:04.435Z,5.70
2019-02-22T00:48:34.113Z,6.13
2019-02-22T00:51:03.732Z,5.90
2019-02-22T00:53:33.345Z,6.23
2019-02-22T00:56:03.074Z,6.23
2019-02-22T00:58:32.677Z,5.90
2019-02-22T01:01:02.283Z,6.60
2019-02-22T01:03:32.031Z,6.40
2019-02-22T01:06:01.927Z,6.20
2019-02-22T01:08:31.650Z,6.07
2019-02-22T01:11:01.554Z,6.33
2019-02-22T01:13:31.275Z,6.97
2019-02-22T01:16:00.866Z,8.37
2019-02-22T01:18:30.530Z,6.80
2019-02-22T01:21:00.195Z,7.37
2019-02-22T01:23:30.025Z,9.47
2019-02-22T01:25:59.676Z,8.50
2019-02-22T01:28:29.653Z,8.77
2019-02-22T01:30:59.309Z,8.43
2019-02-22T01:33:29.087Z,9.33
2019-02-22T01:35:58.761Z,10.27
2019-02-22T01:38:27.652Z,11.13
2019-02-22T01:40:56.457Z,10.57
2019-02-22T01:43:26.112Z,10.50
2019-02-22T01:45:55.731Z,12.47
2019-02-22T01:48:25.340Z,12.00
2019-02-22T01:50:54.976Z,12.30
2019-02-22T01:53:24.659Z,13.17
2019-02-22T01:55:54.189Z,14.70
2019-02-22T01:58:23.914Z,16.90
2019-02-22T02:00:53.573Z,16.37
2019-02-22T02:03:23.093Z,18.53
2019-02-22T02:05:52.760Z,18.40
2019-02-22T02:08:22.434Z,19.07
2019-02-22T02:10:54.382Z,18.83
2019-02-22T02:13:23.404Z,22.30
2019-02-22T02:15:53.256Z,23.13
2019-02-22T02:18:22.846Z,21.80
2019-02-22T02:20:52.651Z,24.40
2019-02-22T02:23:22.244Z,28.23
2019-02-22T02:25:51.829Z,28.60
2019-02-22T02:28:21.145Z,32.70
2019-02-22T02:30:50.042Z,33.63
2019-02-22T02:33:18.856Z,34.90
2019-02-22T02:35:47.688Z,35.73
2019-02-22T02:38:16.491Z,37.30
2019-02-22T02:40:45.305Z,43.20
2019-02-22T02:43:14.111Z,43.63
2019-02-22T02:45:42.997Z,45.73
2019-02-22T02:48:11.876Z,48.90
2019-02-22T02:50:40.692Z,49.67
2019-02-22T02:53:09.587Z,52.17
2019-02-22T02:55:38.401Z,55.90
2019-02-22T02:58:07.291Z,59.40
2019-02-22T03:00:36.237Z,60.97
2019-02-22T03:03:05.213Z,65.40
2019-02-22T03:06:08.320Z,66.10
2019-02-22T03:08:37.218Z,69.37
2019-02-22T03:11:06.164Z,74.60
2019-02-22T03:13:34.977Z,74.93
2019-02-22T03:16:03.890Z,81.67
2019-02-22T03:18:32.733Z,77.57
2019-02-22T03:21:01.695Z,79.93
2019-02-22T03:23:30.593Z,80.50
2019-02-22T03:25:59.404Z,90.17
2019-02-22T03:28:28.214Z,93.13
2019-02-22T03:30:57.123Z,89.60
2019-02-22T03:33:25.999Z,98.97
2019-02-22T03:35:54.808Z,93.80
2019-02-22T03:38:23.628Z,92.53
2019-02-22T03:40:52.574Z,101.10
2019-02-22T03:43:21.408Z,104.00
2019-02-22T03:45:50.209Z,107.30
2019-02-22T03:48:19.225Z,100.37
2019-02-22T03:50:48.019Z,102.73
2019-02-22T03:53:29.098Z,105.27
2019-02-22T03:55:57.985Z,103.07
2019-02-22T03:58:26.866Z,108.00
2019-02-22T04:00:55.844Z,104.77
2019-02-22T04:03:24.667Z,106.47
2019-02-22T04:05:53.541Z,103.57
2019-02-22T04:08:22.349Z,98.93
2019-02-22T04:10:51.260Z,104.60
2019-02-22T04:13:20.145Z,103.67
2019-02-22T04:15:49.846Z,106.43
2019-02-22T04:18:18.726Z,105.07
2019-02-22T04:20:47.546Z,108.30
2019-02-22T04:23:16.349Z,101.77
2019-02-22T04:25:45.253Z,102.27
2019-02-22T04:28:14.076Z,105.37
2019-02-22T04:30:42.890Z,104.60
2019-02-22T04:33:11.711Z,102.30
2019-02-22T04:35:40.610Z,105.07
2019-02-22T04:38:09.428Z,102.07
2019-02-22T04:40:38.238Z,103.07
2019-02-22T04:43:07.062Z,101.60
2019-02-22T04:45:35.939Z,105.97
2019-02-22T04:48:04.917Z,98.67
2019-02-22T04:50:33.810Z,101.87
2019-02-22T04:53:02.761Z,99.67
2019-02-22T04:55:31.572Z,98.20
2019-02-22T04:58:00.476Z,103.77
2019-02-22T05:00:29.281Z,101.00
2019-02-22T05:02:58.174Z,95.67
2019-02-22T05:05:26.991Z,97.83
2019-02-22T05:07:55.827Z,99.63
2019-02-22T05:10:24.623Z,95.47
2019-02-22T05:12:53.466Z,96.63
2019-02-22T05:15:22.333Z,96.50
2019-02-22T05:17:51.157Z,95.43
2019-02-22T05:20:19.964Z,92.10
2019-02-22T05:22:48.849Z,89.00
2019-02-22T05:25:17.704Z,87.90
2019-02-22T05:27:46.519Z,89.50
2019-02-22T05:30:15.489Z,87.50
2019-02-22T05:32:44.389Z,89.73
2019-02-22T05:35:13.301Z,88.23
2019-02-22T05:37:42.179Z,86.97
2019-02-22T05:40:10.982Z,84.47
2019-02-22T05:42:39.861Z,82.60
2019-02-22T05:45:08.830Z,80.93
2019-02-22T05:47:37.721Z,80.10
2019-02-22T05:50:06.702Z,84.37
2019-02-22T05:52:35.649Z,81.93
2019-02-22T05:55:04.622Z,87.07
2019-02-22T05:57:33.435Z,78.93
2019-02-22T06:00:02.323Z,72.67
2019-02-22T06:02:33.720Z,76.50
2019-02-22T06:05:01.668Z,78.50
2019-02-22T06:07:30.482Z,72.83
2019-02-22T06:09:59.290Z,75.83
2019-02-22T06:12:34.497Z,73.77
2019-02-22T06:14:58.710Z,74.30
2019-02-22T06:17:27.526Z,73.77
2019-02-22T06:19:56.421Z,70.17
2019-02-22T06:22:29.628Z,68.30
2019-02-22T06:24:55.875Z,69.00
2019-02-22T06:27:24.775Z,67.40
2019-02-22T06:29:53.579Z,65.00
2019-02-22T06:32:22.397Z,67.70
2019-02-22T06:34:51.231Z,63.27
2019-02-22T06:37:20.046Z,63.27
2019-02-22T06:39:48.855Z,66.50
2019-02-22T06:42:17.690Z,63.47
2019-02-22T06:44:46.510Z,60.97
2019-02-22T06:47:15.332Z,57.57
2019-02-22T06:49:44.606Z,59.23
2019-02-22T06:52:13.546Z,59.07
2019-02-22T06:54:42.445Z,59.10
2019-02-22T06:57:11.336Z,57.90
2019-02-22T06:59:40.141Z,57.53
2019-02-22T07:02:08.957Z,56.00
2019-02-22T07:04:37.762Z,55.80
2019-02-22T07:07:06.661Z,56.07
2019-02-22T07:09:35.557Z,54.80
2019-02-22T07:12:14.618Z,51.90
2019-02-22T07:14:43.427Z,52.90
2019-02-22T07:17:12.310Z,53.73
2019-02-22T07:19:41.133Z,51.30
2019-02-22T07:22:09.928Z,51.83
2019-02-22T07:24:38.743Z,50.30
2019-02-22T07:27:07.730Z,49.90
2019-02-22T07:29:36.621Z,49.90
2019-02-22T07:32:06.459Z,48.53
2019-02-22T07:34:35.377Z,47.30
2019-02-22T07:37:04.208Z,46.63
2019-02-22T07:39:33.028Z,45.93
2019-02-22T07:42:01.845Z,45.20
2019-02-22T07:44:30.645Z,45.77
2019-02-22T07:46:59.452Z,46.27
2019-02-22T07:49:28.410Z,42.97
2019-02-22T07:51:57.212Z,41.20
2019-02-22T07:54:26.111Z,42.73
2019-02-22T07:56:54.921Z,42.37
2019-02-22T07:59:23.741Z,41.33
2019-02-22T08:01:52.693Z,42.37
2019-02-22T08:04:21.520Z,37.00
2019-02-22T08:06:50.317Z,37.40
2019-02-22T08:09:19.144Z,38.90
2019-02-22T08:11:48.220Z,37.20
2019-02-22T08:14:17.045Z,36.47
2019-02-22T08:16:45.849Z,38.07
2019-02-22T08:19:14.644Z,37.77
2019-02-22T08:21:43.541Z,35.40
2019-02-22T08:24:12.355Z,38.77
2019-02-22T08:26:41.169Z,35.07
2019-02-22T08:29:10.044Z,36.17
2019-02-22T08:31:38.960Z,32.80
2019-02-22T08:34:07.764Z,35.37
2019-02-22T08:36:36.577Z,31.77
2019-02-22T08:39:05.801Z,31.30
2019-02-22T08:41:34.696Z,32.80
2019-02-22T08:44:03.696Z,33.20
2019-02-22T08:46:32.501Z,31.00
2019-02-22T08:49:01.444Z,31.90
2019-02-22T08:51:30.263Z,29.87
2019-02-22T08:53:59.079Z,30.90
2019-02-22T08:56:27.963Z,29.07
2019-02-22T08:58:56.748Z,27.27
2019-02-22T09:01:25.560Z,28.93
2019-02-22T09:03:54.384Z,26.23
2019-02-22T09:06:23.254Z,29.17
2019-02-22T09:08:52.085Z,27.03
2019-02-22T09:11:20.946Z,26.80
2019-02-22T09:13:49.749Z,26.97
2019-02-22T09:16:18.563Z,26.03
2019-02-22T09:18:47.440Z,27.63
2019-02-22T09:21:16.330Z,24.73
2019-02-22T09:23:45.300Z,25.80
2019-02-22T09:26:14.213Z,25.27
2019-02-22T09:28:43.033Z,22.80
2019-02-22T09:31:11.858Z,23.40
2019-02-22T09:33:40.885Z,22.93
2019-02-22T09:36:09.693Z,22.17
2019-02-22T09:38:38.578Z,22.10
2019-02-22T09:41:07.369Z,22.23
2019-02-22T09:43:36.221Z,22.40
2019-02-22T09:46:05.169Z,21.57
2019-02-22T09:48:33.989Z,22.10
2019-02-22T09:51:02.779Z,21.00
2019-02-22T09:53:31.605Z,21.60
2019-02-22T09:56:00.410Z,20.77
2019-02-22T09:58:29.229Z,18.90
2019-02-22T10:00:58.217Z,21.40
2019-02-22T10:03:27.037Z,19.93
2019-02-22T10:05:55.846Z,19.47
2019-02-22T10:08:24.744Z,19.60
2019-02-22T10:10:53.554Z,18.90
2019-02-22T10:13:22.537Z,19.80
2019-02-22T10:15:51.358Z,17.93
2019-02-22T10:18:20.166Z,18.30
2019-02-22T10:20:48.986Z,19.10
2019-02-22T10:23:17.799Z,21.43
2019-02-22T10:25:46.676Z,19.23
2019-02-22T10:28:18.059Z,18.30
2019-02-22T10:30:46.029Z,16.50
2019-02-22T10:38:41.521Z,16.10
2019-02-22T11:24:45.177Z,19.50
2019-02-22T11:27:45.293Z,20.37
2019-02-22T12:13:18.836Z,12.33
2019-02-22T12:20:12.380Z,11.33
2019-02-22T12:34:48.957Z,11.77
2019-02-22T12:46:12.770Z,9.93
2019-02-22T12:52:29.598Z,9.13
2019-02-22T12:57:54.121Z,9.67
2019-02-22T13:22:18.346Z,8.00
2019-02-22T13:27:51.166Z,8.83
2019-02-22T13:30:57.010Z,10.00
2019-02-22T13:43:07.757Z,9.87
2019-02-22T14:19:34.589Z,7.70
2019-02-22T14:22:34.657Z,7.63
2019-02-22T14:25:35.037Z,7.67
2019-02-22T14:46:04.501Z,6.73
2019-02-22T14:51:29.454Z,7.47
2019-02-22T15:07:00.984Z,6.17
2019-02-22T15:16:00.256Z,6.00
2019-02-22T15:46:12.644Z,5.47
2019-02-22T16:00:37.150Z,5.80
2019-02-22T16:15:48.399Z,5.17
2019-02-22T16:24:37.485Z,4.70
2019-02-22T16:27:37.085Z,4.27
2019-02-22T16:33:22.497Z,4.83
2019-02-22T16:45:05.143Z,5.27
2019-02-22T16:47:54.119Z,4.47
2019-02-22T17:09:13.757Z,4.97
2019-02-22T17:18:37.079Z,4.07
2019-02-22T17:21:18.117Z,4.07
2019-02-22T17:42:25.295Z,3.73
2019-02-22T17:52:17.398Z,4.10
2019-02-22T18:07:28.689Z,3.70
2019-02-22T18:13:05.368Z,4.10
2019-02-22T18:15:34.177Z,4.20
2019-02-22T18:18:02.984Z,3.83
2019-02-22T18:20:31.877Z,4.20
2019-02-22T18:23:00.705Z,4.20
2019-02-22T18:25:29.590Z,3.70
2019-02-22T18:27:58.405Z,3.90
2019-02-22T18:30:27.351Z,4.40
2019-02-22T18:32:56.150Z,4.57
2019-02-22T18:35:25.024Z,4.00
2019-02-22T18:37:53.965Z,3.63
2019-02-22T18:40:22.880Z,3.33
2019-02-22T18:42:51.764Z,3.23
2019-02-22T18:45:20.648Z,4.20
2019-02-22T18:47:49.545Z,3.43
2019-02-22T18:50:18.359Z,4.00
2019-02-22T18:52:47.150Z,3.50
2019-02-22T18:55:16.036Z,3.80
2019-02-22T18:57:44.878Z,3.03
2019-02-22T19:00:15.133Z,3.73
2019-02-22T19:02:43.985Z,3.70
2019-02-22T19:05:12.897Z,4.10
2019-02-22T19:07:41.859Z,3.50
2019-02-22T19:10:11.317Z,3.37
2019-02-22T19:12:40.360Z,3.43
2019-02-22T19:15:10.897Z,4.10
2019-02-22T19:17:39.812Z,3.93
2019-02-22T19:20:10.513Z,3.20
2019-02-22T19:22:39.449Z,3.00
2019-02-22T19:25:08.513Z,3.00
2019-02-22T19:27:37.429Z,3.23
2019-02-22T19:30:08.047Z,4.03
2019-02-22T19:32:36.896Z,3.80
2019-02-22T19:35:05.832Z,3.80
2019-02-22T19:37:34.624Z,3.20
2019-02-22T19:40:03.685Z,3.07
2019-02-22T19:42:32.493Z,3.77
2019-02-22T19:45:01.314Z,3.73
2019-02-22T19:47:41.143Z,2.83
2019-02-22T19:50:00.662Z,2.90
2019-02-22T19:52:29.984Z,3.27
2019-02-22T19:54:59.499Z,3.00
2019-02-22T19:57:29.121Z,2.73
2019-02-22T19:59:58.778Z,3.17
2019-02-22T20:02:28.492Z,3.40
2019-02-22T20:04:57.936Z,3.23
2019-02-22T20:07:26.818Z,3.67
2019-02-22T20:09:55.614Z,2.50
2019-02-22T20:12:24.440Z,3.23
2019-02-22T20:14:53.250Z,2.43
2019-02-22T20:17:22.044Z,3.07
2019-02-22T20:19:50.857Z,3.27
2019-02-22T20:22:19.741Z,2.77
2019-02-22T20:24:48.537Z,2.90
2019-02-22T20:27:17.478Z,2.80
2019-02-22T20:29:46.290Z,2.90
2019-02-22T20:32:15.083Z,3.60
2019-02-22T20:34:43.892Z,3.00
2019-02-22T20:37:12.860Z,3.20
2019-02-22T20:39:41.727Z,2.67
2019-02-22T20:42:10.530Z,2.63
2019-02-22T20:44:39.332Z,2.80
2019-02-22T20:47:08.205Z,2.50
2019-02-22T20:49:37.028Z,2.70
2019-02-22T20:52:05.821Z,2.80
2019-02-22T20:54:34.640Z,3.00
2019-02-22T20:57:03.459Z,3.40
2019-02-22T20:59:33.289Z,3.10
2019-02-22T21:02:03.004Z,3.07
2019-02-22T21:04:32.493Z,2.90
2019-02-22T21:07:02.225Z,3.00
2019-02-22T21:09:31.837Z,2.77
2019-02-22T21:12:01.339Z,2.93
2019-02-22T21:14:30.309Z,3.00
2019-02-22T21:16:59.142Z,2.50
2019-02-22T21:19:28.049Z,3.00
2019-02-22T21:21:56.863Z,2.80
2019-02-22T21:24:25.664Z,2.60
2019-02-22T21:26:54.638Z,2.80
2019-02-22T21:29:23.502Z,3.47
2019-02-22T21:31:52.365Z,2.93
2019-02-22T21:34:21.203Z,2.63
2019-02-22T21:36:50.075Z,2.40
2019-02-22T21:39:19.729Z,2.77
2019-02-22T21:41:49.402Z,2.47
2019-02-22T21:44:19.024Z,3.10
2019-02-22T21:46:47.950Z,2.90
2019-02-22T21:49:16.754Z,2.80
2019-02-22T21:51:45.657Z,2.90
2019-02-22T21:54:14.473Z,2.70
2019-02-22T21:56:43.272Z,2.77
2019-02-22T21:59:12.157Z,2.27
2019-02-22T22:01:41.030Z,2.90
2019-02-22T22:04:09.841Z,2.70
2019-02-22T22:06:38.638Z,2.87
2019-02-22T22:09:07.608Z,3.00
2019-02-22T22:11:36.423Z,2.40
2019-02-22T22:14:05.385Z,3.17
2019-02-22T22:16:34.261Z,2.37
2019-02-22T22:19:03.073Z,2.60
2019-02-22T22:21:31.882Z,2.90
2019-02-22T22:24:00.760Z,2.40
2019-02-22T22:26:29.572Z,2.70
2019-02-22T22:28:58.389Z,2.63
2019-02-22T22:31:27.278Z,2.50
2019-02-22T22:33:56.175Z,2.70
2019-02-22T22:36:24.988Z,2.33
2019-02-22T22:38:54.970Z,2.27
2019-02-22T22:41:23.889Z,2.40
2019-02-22T22:43:52.701Z,2.40
2019-02-22T22:46:21.522Z,2.23
2019-02-22T22:48:51.841Z,1.93
2019-02-22T22:51:21.613Z,2.10
2019-02-22T22:53:51.125Z,2.97
2019-02-22T22:56:20.734Z,2.20
2019-02-22T22:58:50.339Z,2.37
2019-02-22T23:01:23.025Z,2.37
2019-02-22T23:03:52.999Z,2.40
2019-02-22T23:06:22.497Z,2.33
2019-02-22T23:08:51.445Z,2.03
2019-02-22T23:11:21.038Z,2.03
2019-02-22T23:13:51.074Z,2.57
2019-02-22T23:16:20.730Z,2.80
2019-02-22T23:19:01.111Z,2.53
2019-02-22T23:21:21.197Z,2.37
2019-02-22T23:23:50.105Z,2.20
2019-02-22T23:26:19.054Z,2.67
2019-02-22T23:28:48.008Z,2.33
2019-02-22T23:31:16.951Z,2.33
2019-02-22T23:33:45.901Z,2.20
2019-02-22T23:36:14.773Z,2.30
2019-02-22T23:38:43.588Z,2.50
2019-02-22T23:41:12.420Z,1.97
2019-02-22T23:43:41.309Z,2.30
2019-02-22T23:46:10.996Z,2.40
2019-02-22T23:48:40.822Z,1.67
2019-02-22T23:51:10.428Z,2.33
2019-02-22T23:53:39.347Z,2.73
2019-02-22T23:56:08.272Z,2.23
2019-02-22T23:58:38.020Z,2.20
